Résultats

Le Buis : j´aime, j´y cours!
Buis:10Km-Juniors/Espoirs/Séniors/Vétérans. Édition 2015.

10 Km
09/08/2015 à 17:30:00 - BUIS LES BARONNIES (26)
151 arrivant(e)s.


 
Les autres classements de cet évènement




Place▲ Temps Dossard Nom Prenom Categ #Categ Sexe #Sexe Club Vit Moy Diplôme Partager
1 00:34:58 760 ZEROUAL JAOUAD SEM 1 M 1 ATHLE SANTE LOISIRS ST PRIEST 18,1
2 00:35:31 785 LE-DUEY ANTHONY V1M 1 M 2 17,82
3 00:36:02 677 CHAPERON DAMIEN V1M 2 M 3 GAP HAUTES ALPES ATHLETISME* 17,57
4 00:36:48 655 BRUYAS MAXENCE ESM 1 M 4 S/L EA VILLEFRANCHE 17,2
5 00:36:54 632 DJOUHRT-RIFFARD MAXIME ESM 2 M 5 17,15
6 00:37:41 612 EL-HOUSSAINI BRAHIM SEM 2 M 6 ESPRIT COURSE AVIGNON 16,8
7 00:37:50 777 ORSEL THOMAS ESM 3 M 7 TEAM CMINO SPORT 16,73
8 00:38:26 669 FAVEAUX THIERRY V2M 1 M 8 ENTENTE JURA CENTRE ATHLETISME 16,47
9 00:38:38 786 TRANCHARD MICHAEL V1M 3 M 9 16,38
10 00:38:48 637 LANG CEDRIC V1M 4 M 10 16,31
11 00:39:22 631 BRUYAS JORDAN SEM 3 M 11 ATHLE SANTE LOISIRS ST PRIEST 16,08
12 00:39:56 706 MOREL DENIS V1M 5 M 12 VAL-DE-REUIL AC * 15,85
13 00:40:03 788 HAUD THIERRY V1M 6 M 13 S/L ASUL BRON 15,81
14 00:40:10 602 BERGES CHRISTOPHE SEM 4 M 14 BCI ATHLETISME 15,76
15 00:40:26 670 ROUAI JEAN-PAUL V1M 7 M 15 15,66
16 00:40:29 733 BARDELLE CHRISTINE V1F 1 F 1 15,64
17 00:40:39 681 SINARD JACK SEM 5 M 16 15,57
18 00:40:42 703 PICOCHE LAURANE SEF 1 F 2 SCO STE-MARGUERITE MARSEILLE* 15,55
19 00:41:46 610 DAVO JEAN-CHRISTOPHE V1M 8 M 17 15,16
20 00:41:52 678 ETIENNE FABRICE V1M 9 M 18 15,12
21 00:42:15 688 CHRISTIAENS THOMAS SEM 6 M 19 14,98
22 00:42:51 754 SIMONIN JEAN-LUC V2M 2 M 20 14,77
23 00:43:05 773 AUSSEL PIERRE-MICHEL V2M 3 M 21 14,69
24 00:43:25 776 AGREDA PIERRE V2M 4 M 22 14,58
25 00:43:31 646 DUCRO GERARD V2M 5 M 23 ATHLETIC CLUB SALONAIS * 14,55
26 00:43:35 732 MEBAREK TOUATI V1M 10 M 24 CAP BOLLENE 14,52
27 00:43:44 798 CECCON FREDERIC SEM 7 M 25 USALV 14,47
28 00:44:02 764 INCONNU V1M 11 M 26 14,38
29 00:44:04 664 BONNAL DAVID V1M 12 M 27 14,36
30 00:44:23 617 HARRI HUGUES SEM 8 M 28 14,26
31 00:44:26 766 DEBLIQUIS LAURENT V1M 13 M 29 14,25
32 00:44:53 797 COPEAUX FLORENT SEM 9 M 30 14,1
33 00:44:55 771 TEMMERMAN HERVE V2M 6 M 31 14,09
34 00:44:56 701 MELCHOR ANTHONY SEM 10 M 32 14,09
35 00:45:07 779 SCHOENZETTER LAURENT V1M 14 M 33 14,03
36 00:45:10 687 VAN-THIENEN JEF V3M 1 M 34 14,01
37 00:45:15 633 GUEGAN ALAIN V2M 7 M 35 13,99
38 00:45:17 793 TOLLERON YVES-ROBERT V2M 8 M 36 TEAM MERMILLAD TRIATHLON 13,98
39 00:45:20 638 NAUROY BERTRAND V1M 15 M 37 13,96
40 00:45:23 768 LECOMTE REMI SEM 11 M 38 13,95
41 00:45:25 761 DASTARAC GERARD V2M 9 M 39 CLERMONT SPORT ENDURANCE 13,94
42 00:45:36 605 CHAMPEL SANDRINE V1F 2 F 3 13,88
43 00:45:50 735 FOI FREDERIC SEM 12 M 40 13,81
44 00:45:52 755 SIMONIN SOPHIE V1F 3 F 4 S/L USA CHABEUIL 13,8
45 00:45:54 676 THIRIOT CHRISTIAN V3M 2 M 41 13,79
46 00:46:05 789 JUBOIS TANGUY V1M 16 M 42 13,74
47 00:46:07 682 SIFFROI DAMIEN V1M 17 M 43 13,73
48 00:46:15 628 DEKHIL ABDELAZIZ V3M 3 M 44 EA ROMANS-BOURG DE PEAGE 13,69
49 00:46:48 662 LEJOLLIOT PASCAL V1M 18 M 45 13,53
50 00:46:51 792 LIGNAIS SANDRA V1F 4 F 5 EGL ASUBRON 13,51
51 00:47:12 762 VALLIERE JO V3M 4 M 46 13,41
52 00:47:17 608 CHARLAIX DOMINIQUE V2M 10 M 47 TOP COURIR MARSEILLE 13,39
53 00:47:19 743 FERRE JACQUES V2M 11 M 48 13,38
54 00:47:45 707 DUQUESNOY XAVIER V2M 12 M 49 13,26
55 00:47:47 734 RIGAUD ALIX SEM 13 M 50 S/L CAS AVIGNON 13,25
56 00:47:53 661 PARODI DENIS V2M 13 M 51 13,22
57 00:47:58 746 HERVE PHILIPPE V1M 19 M 52 13,2
58 00:48:24 745 DELAPLACE GUILLAUME V1M 20 M 53 13,08
59 00:48:27 787 FERNADEZ SANDRINE V1F 5 F 6 13,07
60 00:48:43 790 FAYOLLE BERNARD V2M 14 M 54 AC ALES 12,99
61 00:48:55 800 MIRAUCOURT JULIA SEF 2 F 7 U SAULT APT LUBERON VENTOUX 12,94
62 00:48:58 731 MOREL DAVID SEM 14 M 55 12,93
63 00:49:02 679 SOUVIGNET VALERIE V1F 6 F 8 12,91
64 00:49:26 665 MITAN STEPHAN ESM 4 M 56 12,81
65 00:49:29 781 DELARQUE ALAIN V1M 21 M 57 12,79
66 00:49:33 796 SEDENO FABRICE V1M 22 M 58 TEAM MARABOUT 12,77
67 00:49:36 775 MOTTE DIDIER V1M 23 M 59 12,76
68 00:49:41 647 IMMORDINO JEAN V1M 24 M 60 USC SEPTEMES 12,74
69 00:49:47 657 CAULI PHILIPPE V1M 25 M 61 12,72
70 00:50:10 653 SANCHEZ THIERRY V2M 15 M 62 LE BUIS J AIME J Y COURS 12,62
71 00:50:22 626 VILLETON MICHEL V3M 5 M 63 ASM ST-ETIENNE 12,57
72 00:50:37 729 COLOMINA PHILIPPE V1M 26 M 64 BIPLEMES DE LA VAUNAGE 12,51
73 00:50:39 738 RENARD YOHAN SEM 15 M 65 12,5
74 00:50:41 680 CHIRI STEPHANE V1M 27 M 66 USCV VAISON LA ROMAINE 12,49
75 00:50:44 656 TITCOUB DAVE V2M 16 M 67 OUERTON HARRIGRS 12,48
76 00:50:48 742 ROLLAND JACQUES V3M 6 M 68 12,46
77 00:50:56 654 GUEMEHEN LAURENT V1M 28 M 69 12,43
78 00:51:21 752 BERNARD ISABELLE V1F 7 F 9 EA BOURG-EN-BRESSE 12,33
79 00:52:25 649 MARTIAL GILLES V1M 29 M 70 CAP BOLLENE 12,08
80 00:52:35 730 COUTAS NATHALIE V1F 8 F 10 CAP BOLLENE 12,04
81 00:52:37 794 INCONNU V1M 30 M 71 12,03
82 00:52:39 601 BALDACCHINO CEDRIC SEM 16 M 72 AS MARGERAY 12,02
83 00:52:42 795 COLEAUX PAICIPPE V2M 17 M 73 12,01
84 00:52:54 765 TOE JOEL SEM 17 M 74 11,97
85 00:53:28 726 GUEYDAN DELPHINE SEF 3 F 11 11,84
86 00:53:31 623 RAMBION-CHARLAIX SYLVIE V2F 1 F 12 11,83
87 00:53:33 609 CHARLAIX FLORESTAN JUM 1 M 75 11,82
88 00:53:38 635 PINAULT FREDERIC V1M 31 M 76 EA CERGY PONTOISE ATHLETISME * 11,8
89 00:53:41 759 MEROT ANTHONY V1M 32 M 77 11,79
90 00:53:52 658 ROGER SYLVAIN V2M 18 M 78 ARLES ATHLETISME 11,75
91 00:53:56 780 BARBIER MARC V2M 19 M 79 11,74
92 00:53:58 799 CHATAIN JEAN-CHRISTOPHE V2M 20 M 80 LE BUIS J'AIME J'Y COURS 11,73
93 00:54:11 756 MAGNAUD NADINE V2F 2 F 13 CASA 11,68
94 00:54:21 791 FAYOLLE JOSIANE V2F 3 F 14 11,65
95 00:54:25 620 MATTER DENIS V3M 7 M 81 11,63
96 00:54:32 652 TREMORI MICHEL V2M 21 M 82 11,61
97 00:54:35 705 TEYSSIERE ELODIE SEF 4 F 15 11,6
98 00:54:37 673 VILLETON STEPHANIE SEF 5 F 16 11,59
99 00:54:43 645 BERNAUDON JULIEN V1M 33 M 83 11,57
100 00:54:46 671 PECOUT FABRICE V1M 34 M 84 11,56